Merimbula Airport
YMER : now visible

Airfield :











YOU CAN JOIN US ON...

 
LOGIN :

Register | Disclaimer

   EN    FR    IT 

 









Legend :    VFR   Marginal VFR   IFR   Intensive IFR   Very Intensive IFR
Visi :
Ceiling :
>= 8 km
>= 3000ft
5 to 8 km
1000 to 3000 ft
1500m to 5 km
500 to 1000 ft
800 to 1500m
200 to 500 ft
< 800m
< 200 ft
Symbols :   Thunderstorms  Fog  Heavy snow  Heavy precipitations  Wind > 20 kt






- Airport Elevation : 7 ft
- IATA code : MIM


YMER - Merimbula

CURRENT METAR :
  • 230500Z AUTO 13009KT //// // SCT086 BKN110 16/09 Q1007

EXPIRED METARs :
  • 230400Z AUTO 27010KT //// // BKN100 21/03 Q1007
  • 230300Z AUTO 29013G26KT //// // SCT098 22/03 Q1007
  • 230251Z AUTO 26015G26KT //// // SCT094 22/02 Q1007
  • 230200Z AUTO 30014KT //// // SCT084 22/04 Q1008

TAF N/A
YMMM FIR / Oceania



MET'MAP, your aeronautical weather chart ! - Copyright ORBIFLY December 2007 - Disclaimer

ORBIFLY MET'MAP TEAM :

Programming & Development : Alexandra Zaïnal
Concept & original design : Baudouin d'Aumeries
Assistance for programming : Marc-Olivier Méhu
Technical & hardware support : Manuel Goepfert

Contact : metmap@orbifly.com




SOURCES & CREDITS :

   NOAA       Earth
Advisory